This is the latest recevied weather packets stored in our database for station/object I2HLY-3. If no packets are shown the sender has not sent any weather packets the latest 10 day(s).
| Time | Temp. | Humidity | Pressure | Rain* | Wind** | Luminosity | Snow |
|---|---|---|---|---|---|---|---|
| 1777573945 | 16.67° C | 57% | 1021.5 hPa | 0 mm | - | - | - |
| 1777573045 | 17.22° C | 51% | 1021.3 hPa | 0 mm | - | - | - |
| 1777572146 | 17.78° C | 49% | 1021.1 hPa | 0 mm | - | - | - |
| 1777571248 | 17.78° C | 48% | 1021 hPa | 0 mm | - | - | - |
| 1777570348 | 17.78° C | 47% | 1020.9 hPa | 0 mm | - | - | - |
| 1777569446 | 18.33° C | 46% | 1020.8 hPa | 0 mm | - | - | - |
| 1777568548 | 18.33° C | 48% | 1020.9 hPa | 0 mm | - | - | - |
| 1777567647 | 18.33° C | 46% | 1020.8 hPa | 0 mm | - | - | - |
| 1777566746 | 18.33° C | 45% | 1020.8 hPa | 0 mm | - | - | - |
| 1777565847 | 18.33° C | 46% | 1020.9 hPa | 0 mm | - | - | - |
| 1777564950 | 18.33° C | 45% | 1020.8 hPa | 0 mm | - | - | - |
| 1777564049 | 18.33° C | 46% | 1020.9 hPa | 0 mm | - | - | - |
| 1777563148 | 18.89° C | 46% | 1020.9 hPa | 0 mm | - | - | - |
| 1777562252 | 18.33° C | 45% | 1021 hPa | 0 mm | - | - | - |
| 1777561352 | 18.33° C | 46% | 1021 hPa | 0 mm | - | - | - |
| 1777560451 | 18.33° C | 46% | 1021.1 hPa | 0 mm | - | - | - |
| 1777559555 | 18.33° C | 45% | 1021.3 hPa | 0 mm | - | - | - |
| 1777558654 | 18.33° C | 44% | 1021.5 hPa | 0 mm | - | - | - |
| 1777557750 | 18.33° C | 46% | 1021.6 hPa | 0 mm | - | - | - |
| 1777556854 | 17.78° C | 46% | 1021.9 hPa | 0 mm | - | - | - |
| 1777555954 | 17.22° C | 47% | 1022.1 hPa | 0 mm | - | - | - |
| 1777555054 | 17.78° C | 44% | 1022.2 hPa | 0 mm | - | - | - |
| 1777554151 | 17.78° C | 45% | 1022.3 hPa | 0 mm | - | - | - |
| 1777553255 | 17.78° C | 45% | 1022.4 hPa | 0 mm | - | - | - |
| 1777552352 | 17.22° C | 45% | 1022.6 hPa | 0 mm | - | - | - |
* Rain latest hour (hover to see other rain measurements)
** Current wind speed in m/s (hover to see current wind gust speed)